sensor_id;sensor_type;location;lat;lon;timestamp;temperature;humidity
70826;SHT31;58446;41.490;22.098;2023-07-16T00:00:33;28.75;56.44
70826;SHT31;58446;41.490;22.098;2023-07-16T00:02:58;28.73;56.44
70826;SHT31;58446;41.490;22.098;2023-07-16T00:05:24;28.68;56.55
70826;SHT31;58446;41.490;22.098;2023-07-16T00:07:50;28.65;56.59
70826;SHT31;58446;41.490;22.098;2023-07-16T00:10:16;28.69;56.46
70826;SHT31;58446;41.490;22.098;2023-07-16T00:12:42;28.70;56.44
70826;SHT31;58446;41.490;22.098;2023-07-16T00:15:08;28.66;56.49
70826;SHT31;58446;41.490;22.098;2023-07-16T00:17:34;28.69;56.33
70826;SHT31;58446;41.490;22.098;2023-07-16T00:20:00;28.70;56.32
70826;SHT31;58446;41.490;22.098;2023-07-16T00:22:25;28.68;56.49
70826;SHT31;58446;41.490;22.098;2023-07-16T00:24:51;28.56;56.60
70826;SHT31;58446;41.490;22.098;2023-07-16T00:27:17;28.55;56.53
70826;SHT31;58446;41.490;22.098;2023-07-16T00:29:44;28.51;56.81
70826;SHT31;58446;41.490;22.098;2023-07-16T00:32:10;28.41;56.87
70826;SHT31;58446;41.490;22.098;2023-07-16T00:34:36;28.34;57.20
70826;SHT31;58446;41.490;22.098;2023-07-16T00:37:02;28.35;57.28
70826;SHT31;58446;41.490;22.098;2023-07-16T00:39:29;28.32;57.24
70826;SHT31;58446;41.490;22.098;2023-07-16T00:41:54;28.28;57.41
70826;SHT31;58446;41.490;22.098;2023-07-16T00:44:21;28.25;57.60
70826;SHT31;58446;41.490;22.098;2023-07-16T00:46:47;28.19;57.46
70826;SHT31;58446;41.490;22.098;2023-07-16T00:49:12;28.19;57.52
70826;SHT31;58446;41.490;22.098;2023-07-16T00:51:38;28.14;57.59
70826;SHT31;58446;41.490;22.098;2023-07-16T00:54:05;28.12;57.68
70826;SHT31;58446;41.490;22.098;2023-07-16T00:56:31;28.12;57.66
70826;SHT31;58446;41.490;22.098;2023-07-16T00:58:57;28.25;57.42
70826;SHT31;58446;41.490;22.098;2023-07-16T01:01:23;28.24;57.46
70826;SHT31;58446;41.490;22.098;2023-07-16T01:03:49;28.17;57.58
70826;SHT31;58446;41.490;22.098;2023-07-16T01:06:20;28.12;57.80
70826;SHT31;58446;41.490;22.098;2023-07-16T01:11:17;28.15;57.90
70826;SHT31;58446;41.490;22.098;2023-07-16T01:13:44;28.17;57.85
70826;SHT31;58446;41.490;22.098;2023-07-16T01:16:24;28.24;57.72
70826;SHT31;58446;41.490;22.098;2023-07-16T01:18:51;28.18;57.89
70826;SHT31;58446;41.490;22.098;2023-07-16T01:21:21;28.11;58.04
70826;SHT31;58446;41.490;22.098;2023-07-16T01:27:02;27.97;58.55
70826;SHT31;58446;41.490;22.098;2023-07-16T01:29:54;27.94;58.68
70826;SHT31;58446;41.490;22.098;2023-07-16T01:32:24;27.91;58.73
70826;SHT31;58446;41.490;22.098;2023-07-16T01:34:52;27.93;58.76
70826;SHT31;58446;41.490;22.098;2023-07-16T01:37:18;27.94;58.82
70826;SHT31;58446;41.490;22.098;2023-07-16T01:39:43;27.87;59.05
70826;SHT31;58446;41.490;22.098;2023-07-16T01:42:09;27.86;59.13
70826;SHT31;58446;41.490;22.098;2023-07-16T01:44:35;27.80;59.35
70826;SHT31;58446;41.490;22.098;2023-07-16T01:49:33;27.80;59.29
70826;SHT31;58446;41.490;22.098;2023-07-16T01:52:00;27.90;59.21
70826;SHT31;58446;41.490;22.098;2023-07-16T01:54:26;27.70;59.73
70826;SHT31;58446;41.490;22.098;2023-07-16T01:56:52;27.67;59.89
70826;SHT31;58446;41.490;22.098;2023-07-16T01:59:18;27.74;59.73
70826;SHT31;58446;41.490;22.098;2023-07-16T02:01:43;27.80;59.44
70826;SHT31;58446;41.490;22.098;2023-07-16T02:04:09;27.90;59.30
70826;SHT31;58446;41.490;22.098;2023-07-16T02:06:35;27.86;59.44
70826;SHT31;58446;41.490;22.098;2023-07-16T02:09:00;27.83;59.39
70826;SHT31;58446;41.490;22.098;2023-07-16T02:11:26;27.88;59.29
70826;SHT31;58446;41.490;22.098;2023-07-16T02:13:52;27.87;59.23
70826;SHT31;58446;41.490;22.098;2023-07-16T02:16:17;27.74;59.56
70826;SHT31;58446;41.490;22.098;2023-07-16T02:18:43;27.76;59.42
70826;SHT31;58446;41.490;22.098;2023-07-16T02:21:09;27.73;59.57
70826;SHT31;58446;41.490;22.098;2023-07-16T02:23:34;27.77;59.23
70826;SHT31;58446;41.490;22.098;2023-07-16T02:26:00;27.91;58.83
70826;SHT31;58446;41.490;22.098;2023-07-16T02:28:26;28.05;58.48
70826;SHT31;58446;41.490;22.098;2023-07-16T02:30:52;28.25;58.17
70826;SHT31;58446;41.490;22.098;2023-07-16T02:33:17;28.34;57.58
70826;SHT31;58446;41.490;22.098;2023-07-16T02:35:50;28.59;57.18
70826;SHT31;58446;41.490;22.098;2023-07-16T02:38:17;28.59;56.98
70826;SHT31;58446;41.490;22.098;2023-07-16T02:40:44;28.66;57.04
70826;SHT31;58446;41.490;22.098;2023-07-16T02:43:10;28.89;56.43
70826;SHT31;58446;41.490;22.098;2023-07-16T02:45:36;28.95;56.44
70826;SHT31;58446;41.490;22.098;2023-07-16T02:48:02;29.13;55.88
70826;SHT31;58446;41.490;22.098;2023-07-16T02:50:28;29.28;55.44
70826;SHT31;58446;41.490;22.098;2023-07-16T02:52:53;29.38;55.21
70826;SHT31;58446;41.490;22.098;2023-07-16T02:55:19;29.28;55.54
70826;SHT31;58446;41.490;22.098;2023-07-16T02:57:45;29.34;55.41
70826;SHT31;58446;41.490;22.098;2023-07-16T03:00:10;29.43;55.31
70826;SHT31;58446;41.490;22.098;2023-07-16T03:02:36;29.34;55.65
70826;SHT31;58446;41.490;22.098;2023-07-16T03:05:02;29.35;55.52
70826;SHT31;58446;41.490;22.098;2023-07-16T03:07:28;29.31;55.63
70826;SHT31;58446;41.490;22.098;2023-07-16T03:09:54;29.43;55.35
70826;SHT31;58446;41.490;22.098;2023-07-16T03:12:19;29.18;55.61
70826;SHT31;58446;41.490;22.098;2023-07-16T03:14:47;29.17;55.98
70826;SHT31;58446;41.490;22.098;2023-07-16T03:17:12;29.14;56.04
70826;SHT31;58446;41.490;22.098;2023-07-16T03:19:38;29.28;55.81
70826;SHT31;58446;41.490;22.098;2023-07-16T03:22:04;29.23;56.01
70826;SHT31;58446;41.490;22.098;2023-07-16T03:24:30;29.34;55.65
70826;SHT31;58446;41.490;22.098;2023-07-16T03:26:55;29.43;55.41
70826;SHT31;58446;41.490;22.098;2023-07-16T03:29:21;29.46;55.34
70826;SHT31;58446;41.490;22.098;2023-07-16T03:31:47;29.48;55.15
70826;SHT31;58446;41.490;22.098;2023-07-16T03:34:12;29.44;55.21
70826;SHT31;58446;41.490;22.098;2023-07-16T03:36:38;29.02;56.10
70826;SHT31;58446;41.490;22.098;2023-07-16T03:39:03;29.08;56.10
70826;SHT31;58446;41.490;22.098;2023-07-16T03:41:29;29.27;55.61
70826;SHT31;58446;41.490;22.098;2023-07-16T03:43:55;29.38;55.36
70826;SHT31;58446;41.490;22.098;2023-07-16T03:46:20;29.44;55.10
70826;SHT31;58446;41.490;22.098;2023-07-16T03:48:46;29.20;55.80
70826;SHT31;58446;41.490;22.098;2023-07-16T03:51:12;29.30;55.51
70826;SHT31;58446;41.490;22.098;2023-07-16T03:53:38;29.39;55.42
70826;SHT31;58446;41.490;22.098;2023-07-16T03:56:04;29.31;56.02
70826;SHT31;58446;41.490;22.098;2023-07-16T03:58:29;29.28;56.07
70826;SHT31;58446;41.490;22.098;2023-07-16T04:00:55;29.31;55.75
70826;SHT31;58446;41.490;22.098;2023-07-16T04:03:22;29.35;55.66
70826;SHT31;58446;41.490;22.098;2023-07-16T04:05:47;29.38;55.52
70826;SHT31;58446;41.490;22.098;2023-07-16T04:08:13;29.43;55.30
70826;SHT31;58446;41.490;22.098;2023-07-16T04:10:39;28.86;56.75
70826;SHT31;58446;41.490;22.098;2023-07-16T04:13:04;29.16;56.10
70826;SHT31;58446;41.490;22.098;2023-07-16T04:15:30;29.35;55.66
70826;SHT31;58446;41.490;22.098;2023-07-16T04:17:56;29.51;55.26
70826;SHT31;58446;41.490;22.098;2023-07-16T04:20:21;29.57;55.38
70826;SHT31;58446;41.490;22.098;2023-07-16T04:22:47;29.54;55.57
70826;SHT31;58446;41.490;22.098;2023-07-16T04:25:13;29.53;55.36
70826;SHT31;58446;41.490;22.098;2023-07-16T04:27:40;29.64;55.27
70826;SHT31;58446;41.490;22.098;2023-07-16T04:30:07;29.55;56.10
70826;SHT31;58446;41.490;22.098;2023-07-16T04:32:33;29.62;56.21
70826;SHT31;58446;41.490;22.098;2023-07-16T04:34:58;29.75;55.77
70826;SHT31;58446;41.490;22.098;2023-07-16T04:37:24;29.71;55.92
70826;SHT31;58446;41.490;22.098;2023-07-16T04:39:50;29.95;55.38
70826;SHT31;58446;41.490;22.098;2023-07-16T04:42:15;30.19;54.02
70826;SHT31;58446;41.490;22.098;2023-07-16T04:44:42;30.39;53.94
70826;SHT31;58446;41.490;22.098;2023-07-16T04:47:08;30.55;53.86
70826;SHT31;58446;41.490;22.098;2023-07-16T04:49:34;30.56;54.73
70826;SHT31;58446;41.490;22.098;2023-07-16T04:52:01;30.59;54.07
70826;SHT31;58446;41.490;22.098;2023-07-16T04:54:26;30.63;53.79
70826;SHT31;58446;41.490;22.098;2023-07-16T04:56:52;30.70;54.17
70826;SHT31;58446;41.490;22.098;2023-07-16T04:59:18;30.77;53.42
70826;SHT31;58446;41.490;22.098;2023-07-16T05:01:43;30.71;54.48
70826;SHT31;58446;41.490;22.098;2023-07-16T05:04:09;30.55;56.15
70826;SHT31;58446;41.490;22.098;2023-07-16T05:06:35;30.70;55.91
70826;SHT31;58446;41.490;22.098;2023-07-16T05:09:00;30.88;53.92
70826;SHT31;58446;41.490;22.098;2023-07-16T05:11:26;30.74;54.02
70826;SHT31;58446;41.490;22.098;2023-07-16T05:13:52;30.88;53.03
70826;SHT31;58446;41.490;22.098;2023-07-16T05:16:17;30.86;53.63
70826;SHT31;58446;41.490;22.098;2023-07-16T05:18:43;30.77;52.85
70826;SHT31;58446;41.490;22.098;2023-07-16T05:21:09;30.57;52.83
70826;SHT31;58446;41.490;22.098;2023-07-16T05:23:34;30.19;53.50
70826;SHT31;58446;41.490;22.098;2023-07-16T05:26:00;30.09;53.64
70826;SHT31;58446;41.490;22.098;2023-07-16T05:28:25;30.02;54.02
70826;SHT31;58446;41.490;22.098;2023-07-16T05:31:01;30.22;53.71
70826;SHT31;58446;41.490;22.098;2023-07-16T05:33:27;30.39;53.29
70826;SHT31;58446;41.490;22.098;2023-07-16T05:35:53;30.47;52.97
70826;SHT31;58446;41.490;22.098;2023-07-16T05:38:18;30.33;53.15
70826;SHT31;58446;41.490;22.098;2023-07-16T05:40:44;30.46;53.31
70826;SHT31;58446;41.490;22.098;2023-07-16T05:43:10;30.52;52.71
70826;SHT31;58446;41.490;22.098;2023-07-16T05:45:36;30.33;53.03
70826;SHT31;58446;41.490;22.098;2023-07-16T05:48:02;30.26;52.80
70826;SHT31;58446;41.490;22.098;2023-07-16T05:50:29;30.26;53.18
70826;SHT31;58446;41.490;22.098;2023-07-16T05:52:54;30.30;53.02
70826;SHT31;58446;41.490;22.098;2023-07-16T05:55:20;30.49;53.04
70826;SHT31;58446;41.490;22.098;2023-07-16T05:57:46;30.64;53.04
70826;SHT31;58446;41.490;22.098;2023-07-16T06:00:12;30.68;52.51
70826;SHT31;58446;41.490;22.098;2023-07-16T06:02:39;30.95;52.39
70826;SHT31;58446;41.490;22.098;2023-07-16T06:05:06;31.15;51.43
70826;SHT31;58446;41.490;22.098;2023-07-16T06:07:32;31.29;51.48
70826;SHT31;58446;41.490;22.098;2023-07-16T06:09:58;31.28;51.10
70826;SHT31;58446;41.490;22.098;2023-07-16T06:12:24;31.28;51.27
70826;SHT31;58446;41.490;22.098;2023-07-16T06:14:50;31.34;51.02
70826;SHT31;58446;41.490;22.098;2023-07-16T06:17:17;31.21;51.37
70826;SHT31;58446;41.490;22.098;2023-07-16T06:19:42;31.27;50.57
70826;SHT31;58446;41.490;22.098;2023-07-16T06:22:08;31.25;50.97
70826;SHT31;58446;41.490;22.098;2023-07-16T06:24:35;31.34;51.01
70826;SHT31;58446;41.490;22.098;2023-07-16T06:27:00;31.35;51.04
70826;SHT31;58446;41.490;22.098;2023-07-16T06:29:26;31.38;51.15
70826;SHT31;58446;41.490;22.098;2023-07-16T06:31:56;31.49;51.06
70826;SHT31;58446;41.490;22.098;2023-07-16T06:34:23;31.50;50.59
70826;SHT31;58446;41.490;22.098;2023-07-16T06:36:49;31.62;50.25
70826;SHT31;58446;41.490;22.098;2023-07-16T06:39:14;31.62;50.11
70826;SHT31;58446;41.490;22.098;2023-07-16T06:41:40;31.58;50.53
70826;SHT31;58446;41.490;22.098;2023-07-16T06:44:06;31.77;50.25
70826;SHT31;58446;41.490;22.098;2023-07-16T06:46:31;31.73;49.87
70826;SHT31;58446;41.490;22.098;2023-07-16T06:48:57;31.72;50.01
70826;SHT31;58446;41.490;22.098;2023-07-16T06:51:22;31.75;50.00
70826;SHT31;58446;41.490;22.098;2023-07-16T06:53:48;31.72;49.81
70826;SHT31;58446;41.490;22.098;2023-07-16T06:56:14;31.87;50.05
70826;SHT31;58446;41.490;22.098;2023-07-16T06:58:40;32.19;49.36
70826;SHT31;58446;41.490;22.098;2023-07-16T07:01:06;32.24;48.29
70826;SHT31;58446;41.490;22.098;2023-07-16T07:03:32;32.31;48.62
70826;SHT31;58446;41.490;22.098;2023-07-16T07:06:03;32.54;47.99
70826;SHT31;58446;41.490;22.098;2023-07-16T07:08:29;32.60;48.19
70826;SHT31;58446;41.490;22.098;2023-07-16T07:10:55;32.50;47.79
70826;SHT31;58446;41.490;22.098;2023-07-16T07:13:21;32.37;48.58
70826;SHT31;58446;41.490;22.098;2023-07-16T07:15:46;32.51;49.40
70826;SHT31;58446;41.490;22.098;2023-07-16T07:18:12;32.55;48.13
70826;SHT31;58446;41.490;22.098;2023-07-16T07:20:39;32.40;48.18
70826;SHT31;58446;41.490;22.098;2023-07-16T07:23:05;32.33;48.49
70826;SHT31;58446;41.490;22.098;2023-07-16T07:25:31;32.37;48.32
70826;SHT31;58446;41.490;22.098;2023-07-16T07:27:56;32.36;48.26
70826;SHT31;58446;41.490;22.098;2023-07-16T07:30:22;32.43;48.35
70826;SHT31;58446;41.490;22.098;2023-07-16T07:32:48;32.48;48.19
70826;SHT31;58446;41.490;22.098;2023-07-16T07:35:14;32.67;47.66
70826;SHT31;58446;41.490;22.098;2023-07-16T07:37:39;32.78;47.61
70826;SHT31;58446;41.490;22.098;2023-07-16T07:40:05;32.78;47.24
70826;SHT31;58446;41.490;22.098;2023-07-16T07:42:31;32.94;47.29
70826;SHT31;58446;41.490;22.098;2023-07-16T07:44:57;33.16;47.19
70826;SHT31;58446;41.490;22.098;2023-07-16T07:47:23;33.32;45.97
70826;SHT31;58446;41.490;22.098;2023-07-16T07:49:48;33.43;45.94
70826;SHT31;58446;41.490;22.098;2023-07-16T07:52:15;33.63;45.70
70826;SHT31;58446;41.490;22.098;2023-07-16T07:54:41;33.49;46.10
70826;SHT31;58446;41.490;22.098;2023-07-16T07:57:07;33.41;45.98
70826;SHT31;58446;41.490;22.098;2023-07-16T07:59:32;33.49;46.07
70826;SHT31;58446;41.490;22.098;2023-07-16T08:01:58;33.36;45.80
70826;SHT31;58446;41.490;22.098;2023-07-16T08:04:24;33.52;46.68
70826;SHT31;58446;41.490;22.098;2023-07-16T08:06:51;33.49;45.99
70826;SHT31;58446;41.490;22.098;2023-07-16T08:09:16;33.46;46.18
70826;SHT31;58446;41.490;22.098;2023-07-16T08:11:42;33.62;46.80
70826;SHT31;58446;41.490;22.098;2023-07-16T08:14:08;33.52;45.35
70826;SHT31;58446;41.490;22.098;2023-07-16T08:16:34;33.45;46.65
70826;SHT31;58446;41.490;22.098;2023-07-16T08:18:59;33.53;46.67
70826;SHT31;58446;41.490;22.098;2023-07-16T08:21:25;33.67;46.21
70826;SHT31;58446;41.490;22.098;2023-07-16T08:23:51;33.72;45.40
70826;SHT31;58446;41.490;22.098;2023-07-16T08:26:17;33.72;45.49
70826;SHT31;58446;41.490;22.098;2023-07-16T08:28:43;33.70;45.55
70826;SHT31;58446;41.490;22.098;2023-07-16T08:31:12;33.80;45.68
70826;SHT31;58446;41.490;22.098;2023-07-16T08:33:41;33.84;45.38
70826;SHT31;58446;41.490;22.098;2023-07-16T08:36:06;33.93;45.25
70826;SHT31;58446;41.490;22.098;2023-07-16T08:38:32;33.96;44.95
70826;SHT31;58446;41.490;22.098;2023-07-16T08:40:59;34.04;45.25
70826;SHT31;58446;41.490;22.098;2023-07-16T08:43:25;34.05;45.19
70826;SHT31;58446;41.490;22.098;2023-07-16T08:45:52;34.05;45.96
70826;SHT31;58446;41.490;22.098;2023-07-16T08:48:18;33.94;44.87
70826;SHT31;58446;41.490;22.098;2023-07-16T08:50:47;34.01;45.35
70826;SHT31;58446;41.490;22.098;2023-07-16T08:53:15;34.00;45.09
70826;SHT31;58446;41.490;22.098;2023-07-16T08:55:46;34.10;45.17
70826;SHT31;58446;41.490;22.098;2023-07-16T08:58:14;34.21;45.39
70826;SHT31;58446;41.490;22.098;2023-07-16T09:00:44;34.37;45.24
70826;SHT31;58446;41.490;22.098;2023-07-16T09:03:14;34.34;45.45
70826;SHT31;58446;41.490;22.098;2023-07-16T09:05:42;34.35;45.07
70826;SHT31;58446;41.490;22.098;2023-07-16T09:08:09;34.33;44.74
70826;SHT31;58446;41.490;22.098;2023-07-16T09:10:35;34.31;44.71
70826;SHT31;58446;41.490;22.098;2023-07-16T09:13:01;34.33;45.26
70826;SHT31;58446;41.490;22.098;2023-07-16T09:15:28;34.38;44.81
70826;SHT31;58446;41.490;22.098;2023-07-16T09:17:55;34.48;44.80
70826;SHT31;58446;41.490;22.098;2023-07-16T09:20:21;34.62;44.47
70826;SHT31;58446;41.490;22.098;2023-07-16T09:22:53;34.78;44.52
70826;SHT31;58446;41.490;22.098;2023-07-16T09:25:19;34.85;43.39
70826;SHT31;58446;41.490;22.098;2023-07-16T09:27:48;34.96;42.61
70826;SHT31;58446;41.490;22.098;2023-07-16T09:30:15;35.20;43.15
70826;SHT31;58446;41.490;22.098;2023-07-16T09:32:41;35.20;42.85
70826;SHT31;58446;41.490;22.098;2023-07-16T09:35:13;35.12;43.16
70826;SHT31;58446;41.490;22.098;2023-07-16T09:37:41;34.95;43.58
70826;SHT31;58446;41.490;22.098;2023-07-16T09:40:08;34.69;44.65
70826;SHT31;58446;41.490;22.098;2023-07-16T09:42:39;34.69;43.84
70826;SHT31;58446;41.490;22.098;2023-07-16T09:45:17;34.72;43.05
70826;SHT31;58446;41.490;22.098;2023-07-16T09:47:44;34.88;43.79
70826;SHT31;58446;41.490;22.098;2023-07-16T09:50:10;34.98;43.35
70826;SHT31;58446;41.490;22.098;2023-07-16T09:52:37;35.06;43.43
70826;SHT31;58446;41.490;22.098;2023-07-16T09:55:04;35.19;44.12
70826;SHT31;58446;41.490;22.098;2023-07-16T09:57:35;35.29;43.45
70826;SHT31;58446;41.490;22.098;2023-07-16T10:00:04;35.25;42.40
70826;SHT31;58446;41.490;22.098;2023-07-16T10:02:34;35.29;42.67
70826;SHT31;58446;41.490;22.098;2023-07-16T10:05:24;35.46;43.42
70826;SHT31;58446;41.490;22.098;2023-07-16T10:07:56;35.50;41.69
70826;SHT31;58446;41.490;22.098;2023-07-16T10:10:39;35.47;41.89
70826;SHT31;58446;41.490;22.098;2023-07-16T10:13:07;35.57;42.52
70826;SHT31;58446;41.490;22.098;2023-07-16T10:15:34;35.65;43.01
70826;SHT31;58446;41.490;22.098;2023-07-16T10:18:00;35.65;41.74
70826;SHT31;58446;41.490;22.098;2023-07-16T10:20:36;35.69;41.96
70826;SHT31;58446;41.490;22.098;2023-07-16T10:23:15;35.61;43.76
70826;SHT31;58446;41.490;22.098;2023-07-16T10:25:58;35.64;42.09
70826;SHT31;58446;41.490;22.098;2023-07-16T10:28:24;35.65;42.92
70826;SHT31;58446;41.490;22.098;2023-07-16T10:30:50;35.54;43.06
70826;SHT31;58446;41.490;22.098;2023-07-16T10:33:16;35.63;44.12
70826;SHT31;58446;41.490;22.098;2023-07-16T10:35:42;35.63;42.15
70826;SHT31;58446;41.490;22.098;2023-07-16T10:38:08;35.63;42.36
70826;SHT31;58446;41.490;22.098;2023-07-16T10:40:40;35.73;43.53
70826;SHT31;58446;41.490;22.098;2023-07-16T10:43:06;35.74;41.90
70826;SHT31;58446;41.490;22.098;2023-07-16T10:45:32;35.61;42.98
70826;SHT31;58446;41.490;22.098;2023-07-16T10:47:58;35.61;42.91
70826;SHT31;58446;41.490;22.098;2023-07-16T10:50:24;35.54;43.15
70826;SHT31;58446;41.490;22.098;2023-07-16T10:52:54;35.55;43.11
70826;SHT31;58446;41.490;22.098;2023-07-16T10:55:20;35.69;42.79
70826;SHT31;58446;41.490;22.098;2023-07-16T10:57:47;35.92;42.81
70826;SHT31;58446;41.490;22.098;2023-07-16T11:00:15;36.06;43.70
70826;SHT31;58446;41.490;22.098;2023-07-16T11:02:42;36.21;42.06
70826;SHT31;58446;41.490;22.098;2023-07-16T11:05:15;36.09;41.66
70826;SHT31;58446;41.490;22.098;2023-07-16T11:07:48;35.94;42.37
70826;SHT31;58446;41.490;22.098;2023-07-16T11:10:17;36.06;41.81
70826;SHT31;58446;41.490;22.098;2023-07-16T11:12:43;36.05;40.90
70826;SHT31;58446;41.490;22.098;2023-07-16T11:15:10;35.92;41.66
70826;SHT31;58446;41.490;22.098;2023-07-16T11:17:38;36.04;41.50
70826;SHT31;58446;41.490;22.098;2023-07-16T11:20:07;36.21;42.32
70826;SHT31;58446;41.490;22.098;2023-07-16T11:22:37;36.39;41.95
70826;SHT31;58446;41.490;22.098;2023-07-16T11:25:03;36.48;40.86
70826;SHT31;58446;41.490;22.098;2023-07-16T11:27:31;36.63;40.39
70826;SHT31;58446;41.490;22.098;2023-07-16T11:29:59;36.73;41.17
70826;SHT31;58446;41.490;22.098;2023-07-16T11:32:35;36.80;40.28
70826;SHT31;58446;41.490;22.098;2023-07-16T11:35:06;36.75;40.39
70826;SHT31;58446;41.490;22.098;2023-07-16T11:37:33;36.75;40.07
70826;SHT31;58446;41.490;22.098;2023-07-16T11:40:05;36.70;40.66
70826;SHT31;58446;41.490;22.098;2023-07-16T11:42:35;36.62;40.62
70826;SHT31;58446;41.490;22.098;2023-07-16T11:45:02;36.56;40.25
70826;SHT31;58446;41.490;22.098;2023-07-16T11:47:28;36.61;40.52
70826;SHT31;58446;41.490;22.098;2023-07-16T11:49:55;36.69;40.36
70826;SHT31;58446;41.490;22.098;2023-07-16T11:52:23;36.66;41.05
70826;SHT31;58446;41.490;22.098;2023-07-16T11:54:49;36.68;39.79
70826;SHT31;58446;41.490;22.098;2023-07-16T11:57:15;36.62;39.75
70826;SHT31;58446;41.490;22.098;2023-07-16T11:59:41;36.73;41.26
70826;SHT31;58446;41.490;22.098;2023-07-16T12:02:07;36.82;40.56
70826;SHT31;58446;41.490;22.098;2023-07-16T12:04:34;36.89;39.70
70826;SHT31;58446;41.490;22.098;2023-07-16T12:06:59;36.94;40.56
70826;SHT31;58446;41.490;22.098;2023-07-16T12:09:25;36.99;39.76
70826;SHT31;58446;41.490;22.098;2023-07-16T12:11:51;37.03;39.18
70826;SHT31;58446;41.490;22.098;2023-07-16T12:14:17;36.97;40.26
70826;SHT31;58446;41.490;22.098;2023-07-16T12:16:43;36.89;39.25
70826;SHT31;58446;41.490;22.098;2023-07-16T12:19:09;36.90;40.11
70826;SHT31;58446;41.490;22.098;2023-07-16T12:21:35;36.97;39.39
70826;SHT31;58446;41.490;22.098;2023-07-16T12:24:01;36.94;38.49
70826;SHT31;58446;41.490;22.098;2023-07-16T12:26:27;36.99;38.72
70826;SHT31;58446;41.490;22.098;2023-07-16T12:28:53;36.92;38.31
70826;SHT31;58446;41.490;22.098;2023-07-16T12:31:20;36.90;38.93
70826;SHT31;58446;41.490;22.098;2023-07-16T12:33:47;36.94;39.28
70826;SHT31;58446;41.490;22.098;2023-07-16T12:36:13;37.02;40.10
70826;SHT31;58446;41.490;22.098;2023-07-16T12:38:39;37.03;38.87
70826;SHT31;58446;41.490;22.098;2023-07-16T12:41:06;37.07;39.39
70826;SHT31;58446;41.490;22.098;2023-07-16T12:43:32;37.09;38.33
70826;SHT31;58446;41.490;22.098;2023-07-16T12:46:00;37.21;39.48
70826;SHT31;58446;41.490;22.098;2023-07-16T12:48:28;37.27;38.59
70826;SHT31;58446;41.490;22.098;2023-07-16T12:50:54;37.34;39.37
70826;SHT31;58446;41.490;22.098;2023-07-16T12:53:20;37.38;39.14
70826;SHT31;58446;41.490;22.098;2023-07-16T12:55:45;37.42;39.72
70826;SHT31;58446;41.490;22.098;2023-07-16T12:58:11;37.47;39.18
70826;SHT31;58446;41.490;22.098;2023-07-16T13:00:37;37.45;37.58
70826;SHT31;58446;41.490;22.098;2023-07-16T13:03:02;37.47;37.89
70826;SHT31;58446;41.490;22.098;2023-07-16T13:05:30;37.41;37.36
70826;SHT31;58446;41.490;22.098;2023-07-16T13:07:55;37.33;36.87
70826;SHT31;58446;41.490;22.098;2023-07-16T13:10:23;37.40;38.07
70826;SHT31;58446;41.490;22.098;2023-07-16T13:12:50;37.42;38.09
70826;SHT31;58446;41.490;22.098;2023-07-16T13:15:15;37.45;37.22
70826;SHT31;58446;41.490;22.098;2023-07-16T13:17:41;37.40;37.14
70826;SHT31;58446;41.490;22.098;2023-07-16T13:20:07;37.21;37.08
70826;SHT31;58446;41.490;22.098;2023-07-16T13:22:33;37.27;37.57
70826;SHT31;58446;41.490;22.098;2023-07-16T13:24:59;37.35;37.92
70826;SHT31;58446;41.490;22.098;2023-07-16T13:27:24;37.50;37.25
70826;SHT31;58446;41.490;22.098;2023-07-16T13:29:50;37.51;35.69
70826;SHT31;58446;41.490;22.098;2023-07-16T13:32:16;37.48;36.14
70826;SHT31;58446;41.490;22.098;2023-07-16T13:34:42;37.53;36.90
70826;SHT31;58446;41.490;22.098;2023-07-16T13:37:08;37.62;36.56
70826;SHT31;58446;41.490;22.098;2023-07-16T13:39:33;37.70;36.39
70826;SHT31;58446;41.490;22.098;2023-07-16T13:41:59;37.80;36.37
70826;SHT31;58446;41.490;22.098;2023-07-16T13:44:25;37.84;36.53
70826;SHT31;58446;41.490;22.098;2023-07-16T13:46:50;37.85;35.68
70826;SHT31;58446;41.490;22.098;2023-07-16T13:49:16;37.85;35.60
70826;SHT31;58446;41.490;22.098;2023-07-16T13:51:41;37.85;34.93
70826;SHT31;58446;41.490;22.098;2023-07-16T13:54:11;37.92;34.80
70826;SHT31;58446;41.490;22.098;2023-07-16T13:56:37;37.95;35.59
70826;SHT31;58446;41.490;22.098;2023-07-16T13:59:02;37.88;33.06
70826;SHT31;58446;41.490;22.098;2023-07-16T14:01:29;37.70;34.46
70826;SHT31;58446;41.490;22.098;2023-07-16T14:03:55;37.61;34.87
70826;SHT31;58446;41.490;22.098;2023-07-16T14:06:22;37.64;35.13
70826;SHT31;58446;41.490;22.098;2023-07-16T14:08:48;37.61;35.32
70826;SHT31;58446;41.490;22.098;2023-07-16T14:11:13;37.60;35.17
70826;SHT31;58446;41.490;22.098;2023-07-16T14:13:40;37.65;35.32
70826;SHT31;58446;41.490;22.098;2023-07-16T14:16:06;37.70;35.28
70826;SHT31;58446;41.490;22.098;2023-07-16T14:18:32;37.81;35.10
70826;SHT31;58446;41.490;22.098;2023-07-16T14:20:58;37.86;34.10
70826;SHT31;58446;41.490;22.098;2023-07-16T14:23:23;37.84;34.89
70826;SHT31;58446;41.490;22.098;2023-07-16T14:25:49;37.78;33.94
70826;SHT31;58446;41.490;22.098;2023-07-16T14:28:15;37.80;34.30
70826;SHT31;58446;41.490;22.098;2023-07-16T14:30:40;37.78;34.26
70826;SHT31;58446;41.490;22.098;2023-07-16T14:33:06;37.77;34.97
70826;SHT31;58446;41.490;22.098;2023-07-16T14:35:33;37.72;34.85
70826;SHT31;58446;41.490;22.098;2023-07-16T14:37:59;37.68;34.66
70826;SHT31;58446;41.490;22.098;2023-07-16T14:40:25;37.64;33.86
70826;SHT31;58446;41.490;22.098;2023-07-16T14:42:51;37.61;34.25
70826;SHT31;58446;41.490;22.098;2023-07-16T14:45:17;37.55;34.69
70826;SHT31;58446;41.490;22.098;2023-07-16T14:47:43;37.57;34.82
70826;SHT31;58446;41.490;22.098;2023-07-16T14:50:09;37.61;35.12
70826;SHT31;58446;41.490;22.098;2023-07-16T14:52:35;37.61;34.49
70826;SHT31;58446;41.490;22.098;2023-07-16T14:55:02;37.68;35.46
70826;SHT31;58446;41.490;22.098;2023-07-16T14:57:30;37.65;36.00
70826;SHT31;58446;41.490;22.098;2023-07-16T14:59:55;37.72;36.21
70826;SHT31;58446;41.490;22.098;2023-07-16T15:02:21;37.70;36.75
70826;SHT31;58446;41.490;22.098;2023-07-16T15:04:48;37.62;36.09
70826;SHT31;58446;41.490;22.098;2023-07-16T15:07:13;37.57;36.53
70826;SHT31;58446;41.490;22.098;2023-07-16T15:09:39;37.45;35.82
70826;SHT31;58446;41.490;22.098;2023-07-16T15:12:06;37.31;36.33
70826;SHT31;58446;41.490;22.098;2023-07-16T15:14:32;37.34;36.64
70826;SHT31;58446;41.490;22.098;2023-07-16T15:16:59;37.38;37.28
70826;SHT31;58446;41.490;22.098;2023-07-16T15:19:25;37.35;36.91